createdAt,value
2022-11-17T05:04:39.058Z,85.85
2022-11-17T05:06:40.259Z,87.38
2022-11-17T05:08:41.892Z,87.98
2022-11-17T05:10:43.579Z,88.21
2022-11-17T05:12:44.988Z,88.09
2022-11-17T05:14:46.152Z,87.74
2022-11-17T05:16:47.875Z,89.17
2022-11-17T05:18:49.084Z,88.78
2022-11-17T05:22:51.834Z,88.22
2022-11-17T05:24:53.346Z,88.7
2022-11-17T05:26:55.064Z,88.51
2022-11-17T05:28:56.661Z,88.5
2022-11-17T05:30:57.931Z,88.79
2022-11-17T05:32:59.494Z,88.96
2022-11-17T05:35:00.778Z,89.45
2022-11-17T05:37:02.263Z,89.65
2022-11-17T05:39:04.052Z,89.22
2022-11-17T05:41:05.808Z,89.23
2022-11-17T05:43:06.751Z,88.93
2022-11-17T05:45:07.972Z,89.64
2022-11-17T05:47:09.800Z,89.83
2022-11-17T05:49:11.304Z,89.93
2022-11-17T05:51:13.082Z,89.89
2022-11-17T05:53:14.379Z,90.06
2022-11-17T05:55:16.158Z,90.27
2022-11-17T05:57:17.456Z,90.09
2022-11-17T05:59:22.105Z,90.29
2022-11-17T06:01:20.502Z,90.06
2022-11-17T06:05:22.711Z,90.11
2022-11-17T06:07:23.690Z,90.46
2022-11-17T06:09:24.792Z,90.48
2022-11-17T06:11:26.331Z,90.87
2022-11-17T06:13:28.229Z,91.12
2022-11-17T06:15:29.939Z,91.02
2022-11-17T06:17:31.586Z,91
2022-11-17T06:19:32.699Z,90.95
2022-11-17T06:21:56.711Z,90.87
2022-11-17T06:23:36.307Z,91.03
2022-11-17T06:25:37.468Z,91.13
2022-11-17T06:27:38.815Z,90.96
2022-11-17T06:29:43.824Z,90.96
2022-11-17T06:31:41.715Z,91.07
2022-11-17T06:33:43.473Z,91.21
2022-11-17T06:37:46.032Z,90.85
2022-11-17T06:39:47.842Z,90.95
2022-11-17T06:41:49.736Z,90.76
2022-11-17T06:43:50.844Z,90.8
2022-11-17T06:47:53.689Z,90.97
2022-11-17T06:48:37.904Z,91.05
2022-11-17T06:50:39.368Z,91.27
2022-11-17T06:52:41.085Z,90.84
2022-11-17T06:54:42.895Z,90.64
2022-11-17T06:56:44.350Z,90.84
2022-11-17T06:58:46.173Z,90.66
2022-11-17T07:00:48.049Z,91.04
2022-11-17T07:02:49.064Z,91.32
2022-11-17T07:04:50.021Z,91.31
2022-11-17T07:06:51.218Z,91.45
2022-11-17T07:08:52.206Z,91.96
2022-11-17T07:10:53.147Z,92.28
2022-11-17T07:12:54.694Z,91.89
2022-11-17T07:14:56.141Z,91.88
2022-11-17T07:16:57.832Z,92.19
2022-11-17T07:18:58.964Z,92.7
2022-11-17T07:21:00.278Z,92.86
2022-11-17T07:23:01.665Z,93.09
2022-11-17T07:25:02.771Z,93.06
2022-11-17T07:27:04.584Z,92.99
2022-11-17T07:31:07.206Z,92.72
2022-11-17T07:33:08.943Z,93
2022-11-17T07:35:10.790Z,92.77
2022-11-17T07:37:12.546Z,92.84
2022-11-17T07:41:14.794Z,92.08
2022-11-17T07:43:16.809Z,92.04
2022-11-17T07:45:18.095Z,92.11
2022-11-17T07:47:19.247Z,91.95
2022-11-17T07:49:21.071Z,92.46
2022-11-17T07:51:22.573Z,92.72
2022-11-17T07:53:33.513Z,92.24
2022-11-17T07:55:25.930Z,91.21
2022-11-17T07:57:27.683Z,91.09
2022-11-17T07:59:28.778Z,91.52
2022-11-17T08:01:30.420Z,90.82
2022-11-17T08:03:32.212Z,91.12
2022-11-17T08:05:35.893Z,90.9
2022-11-17T08:07:34.332Z,91.21
2022-11-17T08:09:35.302Z,90.98
2022-11-17T08:11:37.122Z,91.34
2022-11-17T08:13:38.217Z,90.85
2022-11-17T08:15:40.935Z,90.36
2022-11-17T08:17:41.237Z,90.5
2022-11-17T08:19:42.480Z,90.08
2022-11-17T08:23:45.707Z,89.64
2022-11-17T08:25:47.193Z,89.96
2022-11-17T08:27:58.068Z,89.61
2022-11-17T08:29:50.729Z,89.34
2022-11-17T08:31:52.003Z,89.52
2022-11-17T08:33:53.849Z,89.77
2022-11-17T08:35:54.792Z,89.97
2022-11-17T08:37:55.848Z,90.11
2022-11-17T08:39:57.459Z,89.91
2022-11-17T08:41:58.553Z,90.22
2022-11-17T08:43:59.766Z,90.33
2022-11-17T08:46:01.024Z,89.31
2022-11-17T08:48:02.770Z,89.37
2022-11-17T08:50:03.767Z,89.78
2022-11-17T08:52:05.173Z,89.54
2022-11-17T08:54:06.863Z,89.59
2022-11-17T08:56:07.863Z,89.4
2022-11-17T08:58:09.598Z,88.87
2022-11-17T09:00:11.175Z,89.07
2022-11-17T09:02:12.870Z,89.48
2022-11-17T09:06:15.326Z,89.23
2022-11-17T09:08:43.738Z,89.19
2022-11-17T09:10:18.213Z,89.52
2022-11-17T09:12:19.958Z,89.8
2022-11-17T09:14:20.866Z,90.57
2022-11-17T09:16:22.703Z,91.19
2022-11-17T09:18:24.056Z,90.64
2022-11-17T09:20:25.773Z,91.53
2022-11-17T09:22:26.629Z,91.56
2022-11-17T09:24:28.178Z,91.05
2022-11-17T09:26:29.584Z,91.15
2022-11-17T09:28:30.614Z,91.24
2022-11-17T09:30:32.461Z,90.05
2022-11-17T09:32:34.033Z,89.48
2022-11-17T09:34:35.572Z,89.39
2022-11-17T09:38:38.510Z,89.31
2022-11-17T09:40:39.303Z,87.09
2022-11-17T09:42:40.280Z,88.01
2022-11-17T09:44:41.868Z,89.07
2022-11-17T09:48:44.048Z,88.5
2022-11-17T09:50:45.717Z,88.13
2022-11-17T09:52:47.324Z,87.82
2022-11-17T09:54:49.124Z,88.04
2022-11-17T09:56:50.884Z,87.13
2022-11-17T09:58:51.961Z,87.25
2022-11-17T10:00:53.447Z,87.5
2022-11-17T10:02:54.474Z,88.06
2022-11-17T10:04:55.767Z,87.84
2022-11-17T10:06:57.222Z,87
2022-11-17T10:08:58.402Z,87.39
2022-11-17T10:10:59.938Z,87.7
2022-11-17T10:13:01.627Z,88.1
2022-11-17T10:15:03.361Z,87.48
2022-11-17T10:17:05.180Z,86.96
2022-11-17T10:19:06.945Z,86.88
2022-11-17T10:21:07.949Z,86.97
2022-11-17T10:23:09.581Z,87.46
2022-11-17T10:25:11.042Z,87.25
2022-11-17T10:27:11.980Z,87.55
2022-11-17T10:29:13.199Z,88.17
2022-11-17T10:31:14.628Z,88.69
2022-11-17T10:33:15.700Z,87.59
2022-11-17T10:37:18.799Z,87.39
2022-11-17T10:39:20.649Z,87.34
2022-11-17T10:41:22.046Z,88.64
2022-11-17T10:43:23.968Z,88.02
2022-11-17T10:47:26.180Z,86.68
2022-11-17T10:49:27.738Z,86.22
2022-11-17T10:51:29.180Z,86.48
2022-11-17T10:53:30.572Z,85.98
2022-11-17T10:55:31.964Z,86.55
2022-11-17T10:57:33.575Z,85.56
2022-11-17T10:59:34.582Z,84.95
2022-11-17T11:01:35.618Z,84.84
2022-11-17T11:03:36.805Z,84.9
2022-11-17T11:05:37.702Z,84.58
2022-11-17T11:07:39.322Z,85.55
2022-11-17T11:09:40.560Z,87.13
2022-11-17T11:11:42.479Z,88.41
2022-11-17T11:13:43.343Z,89.52
2022-11-17T11:15:44.916Z,91.03
2022-11-17T11:17:46.093Z,91.77
2022-11-17T11:19:47.630Z,92.24
2022-11-17T11:21:48.872Z,92.46
2022-11-17T11:23:50.466Z,92.78
2022-11-17T11:25:51.792Z,92.3
2022-11-17T11:29:54.005Z,92.77
2022-11-17T11:31:55.214Z,92.52
2022-11-17T11:33:57.002Z,92.88
2022-11-17T11:35:58.324Z,93.4
2022-11-17T11:37:59.267Z,93.98
2022-11-17T11:40:00.400Z,94.15
2022-11-17T11:42:06.490Z,94.52
2022-11-17T11:44:02.555Z,94.18
2022-11-17T11:46:04.061Z,93.95
2022-11-17T11:48:05.598Z,93.32
2022-11-17T11:50:06.728Z,93.62
2022-11-17T11:52:08.440Z,93.91
2022-11-17T11:54:10.345Z,94.14
2022-11-17T11:56:11.532Z,94.34
2022-11-17T11:58:13.445Z,94.58
2022-11-17T12:02:16.789Z,94.99
2022-11-17T12:04:17.814Z,95.04
2022-11-17T12:06:18.930Z,95.36
2022-11-17T12:08:20.472Z,95.62
2022-11-17T12:12:23.153Z,95.87
2022-11-17T12:14:24.211Z,95.89
2022-11-17T12:16:25.153Z,95.98
2022-11-17T12:18:26.527Z,95.86
2022-11-17T12:20:28.306Z,95.84
2022-11-17T12:22:30.101Z,95.8
2022-11-17T12:24:31.590Z,95.53
2022-11-17T12:26:32.555Z,95.31
2022-11-17T12:28:34.431Z,95.21
2022-11-17T12:30:36.300Z,94.93
2022-11-17T12:32:37.290Z,94.89
2022-11-17T12:34:38.485Z,94.5
2022-11-17T12:36:39.824Z,94.77
2022-11-17T12:38:41.186Z,94.97
2022-11-17T12:40:42.944Z,94.45
2022-11-17T12:42:44.519Z,95.43
2022-11-17T12:44:46.905Z,94.79
2022-11-17T12:46:48.541Z,94.32
2022-11-17T12:48:49.477Z,93.51
2022-11-17T12:50:50.676Z,91.87
2022-11-17T12:52:52.118Z,92.12
2022-11-17T12:54:53.031Z,92.46
2022-11-17T12:56:54.262Z,92.39
2022-11-17T13:00:57.938Z,92.51
2022-11-17T13:02:58.996Z,92.67
2022-11-17T13:05:00.677Z,91.85
2022-11-17T13:07:01.814Z,91.75
2022-11-17T13:11:04.200Z,90.69
2022-11-17T13:13:05.678Z,90.33
2022-11-17T13:15:07.044Z,90.62
2022-11-17T13:17:08.254Z,90.49
2022-11-17T13:19:09.847Z,91.32
2022-11-17T13:21:11.294Z,91.03
2022-11-17T13:23:12.642Z,90.22
2022-11-17T13:25:14.392Z,90.7
2022-11-17T13:27:16.071Z,89.59
2022-11-17T13:29:17.104Z,87.34
2022-11-17T13:31:18.435Z,87.72
2022-11-17T13:33:20.064Z,86.9
2022-11-17T13:36:05.160Z,87.19
2022-11-17T13:38:06.747Z,88.51
2022-11-17T13:40:08.341Z,88.52
2022-11-17T13:42:09.683Z,88.86
2022-11-17T13:44:11.208Z,89
2022-11-17T13:48:14.019Z,89.6
2022-11-17T13:50:15.338Z,90.08
2022-11-17T13:52:16.919Z,89.26
2022-11-17T13:54:18.545Z,89.71
2022-11-17T13:56:20.433Z,89.92
2022-11-17T13:58:24.624Z,89.79
2022-11-17T14:00:22.833Z,89.96
2022-11-17T14:02:24.224Z,89.59
2022-11-17T14:04:26.369Z,89.12
2022-11-17T14:06:27.312Z,89.45
2022-11-17T14:08:28.334Z,89.12
2022-11-17T14:10:29.373Z,89.04
2022-11-17T14:12:30.797Z,90.16
2022-11-17T14:14:32.440Z,89.89
2022-11-17T14:16:33.469Z,90.52
2022-11-17T14:20:36.372Z,90.69
2022-11-17T14:22:38.246Z,90.98
2022-11-17T14:24:39.320Z,91.49
2022-11-17T14:26:40.435Z,91.66
2022-11-17T14:30:43.771Z,91.59
2022-11-17T14:32:44.781Z,92.17
2022-11-17T14:34:46.233Z,92.4
2022-11-17T14:36:47.840Z,92.8
2022-11-17T14:38:49.717Z,93.02
2022-11-17T14:40:51.631Z,93.24
2022-11-17T14:42:53.523Z,90.32
2022-11-17T14:44:54.443Z,90.87
2022-11-17T14:46:55.441Z,89.88
2022-11-17T14:48:56.797Z,90.09
2022-11-17T14:50:58.065Z,89.73
2022-11-17T14:52:59.395Z,90.25
2022-11-17T14:55:00.724Z,90.22
2022-11-17T14:57:01.992Z,89.92
2022-11-17T14:59:03.711Z,89.86
2022-11-17T15:01:05.232Z,89.75
2022-11-17T15:03:06.551Z,90.02
2022-11-17T15:05:07.644Z,90.67
2022-11-17T15:07:09.253Z,90.52
2022-11-17T15:09:10.546Z,90.93
2022-11-17T15:11:12.020Z,90.85
2022-11-17T15:13:13.282Z,91.28
2022-11-17T15:15:14.346Z,91.61
2022-11-17T15:19:16.984Z,92.11
2022-11-17T15:21:18.396Z,91.7
2022-11-17T15:23:20.234Z,91.94
2022-11-17T15:25:21.588Z,90.76
2022-11-17T15:29:24.123Z,91.71
2022-11-17T15:31:25.761Z,91.81
2022-11-17T15:33:26.717Z,92.18
2022-11-17T15:35:27.911Z,92.35
2022-11-17T15:37:29.603Z,92.41
2022-11-17T15:39:30.937Z,92.42
2022-11-17T15:41:33.085Z,92.43
2022-11-17T15:43:33.816Z,92.72
2022-11-17T15:45:35.717Z,93.21
2022-11-17T15:47:37.143Z,93.81
2022-11-17T15:49:38.710Z,93.51
2022-11-17T15:51:39.745Z,93.53
2022-11-17T15:53:41.375Z,93.58
2022-11-17T15:55:42.616Z,93.73
2022-11-17T15:57:43.913Z,93.88
2022-11-17T15:59:45.799Z,93.9
2022-11-17T16:01:47.438Z,94.15
2022-11-17T16:03:49.168Z,94.3
2022-11-17T16:05:50.552Z,94.01
2022-11-17T16:07:52.212Z,94.03
2022-11-17T16:11:55.711Z,94.2
2022-11-17T16:13:57.325Z,94.47
2022-11-17T16:15:58.537Z,94.46
2022-11-17T16:17:59.536Z,94.54
2022-11-17T16:20:00.724Z,94.54
2022-11-17T16:22:01.887Z,95.41
2022-11-17T16:24:03.818Z,95.95
2022-11-17T16:26:04.813Z,96.33
2022-11-17T16:28:06.378Z,96.44
2022-11-17T16:30:07.322Z,96.49
2022-11-17T16:32:08.926Z,96.46
2022-11-17T16:34:10.173Z,96.29
2022-11-17T16:36:11.212Z,96.14
2022-11-17T16:38:12.887Z,96.25
2022-11-17T16:40:14.749Z,96.35
2022-11-17T16:42:16.234Z,96.32
2022-11-17T16:44:17.636Z,96.35
2022-11-17T16:46:19.289Z,96.82
2022-11-17T16:48:20.355Z,97.08
2022-11-17T16:50:21.914Z,97.19
2022-11-17T16:54:23.907Z,97.25
2022-11-17T16:56:25.718Z,97
2022-11-17T16:58:27.545Z,96.15
2022-11-17T17:00:28.764Z,95.3
2022-11-17T17:02:30.326Z,95.19
2022-11-17T17:04:31.395Z,95.15
2022-11-17T17:06:32.812Z,95.26
2022-11-17T17:08:33.926Z,95.22
2022-11-17T17:10:35.568Z,95.23
2022-11-17T17:12:36.521Z,93.89
2022-11-17T17:14:38.472Z,93.32
2022-11-17T17:16:39.849Z,93.58
2022-11-17T17:18:41.479Z,93.64
2022-11-17T17:20:43.303Z,93.96
2022-11-17T17:22:44.365Z,94.39
2022-11-17T17:26:47.857Z,95.69
2022-11-17T17:28:49.664Z,95.98
2022-11-17T17:30:50.672Z,96.13
2022-11-17T17:32:52.090Z,96.28
2022-11-17T17:36:55.746Z,96.71
2022-11-17T17:38:56.960Z,96.83
2022-11-17T17:40:58.435Z,96.9
2022-11-17T17:42:59.603Z,96.95
2022-11-17T17:45:01.468Z,96.96
2022-11-17T17:47:03.238Z,96.97
2022-11-17T17:49:04.440Z,96.98
2022-11-17T17:51:05.752Z,96.96
2022-11-17T17:53:06.732Z,96.98
2022-11-17T17:55:08.543Z,97.06
2022-11-17T17:57:10.257Z,97.21
2022-11-17T17:59:11.772Z,97.24
2022-11-17T18:01:12.794Z,97.27
2022-11-17T18:03:14.666Z,97.28
2022-11-17T18:05:16.376Z,97.27
2022-11-17T18:07:18.082Z,97.3
2022-11-17T18:09:19.852Z,97.3
2022-11-17T18:11:20.320Z,97.39
2022-11-17T18:13:21.666Z,97.4
2022-11-17T18:15:23.519Z,97.35
2022-11-17T18:17:24.940Z,97.51
2022-11-17T18:19:31.491Z,97.57
2022-11-17T18:21:28.103Z,97.6
2022-11-17T18:25:30.210Z,97.69
2022-11-17T18:27:31.956Z,97.68
2022-11-17T18:29:33.544Z,97.65
2022-11-17T18:31:34.554Z,97.66
2022-11-17T18:35:37.854Z,97.64
2022-11-17T18:37:39.422Z,97.66
2022-11-17T18:39:41.096Z,97.66
2022-11-17T18:41:42.770Z,97.7
2022-11-17T18:43:44.175Z,97.74
2022-11-17T18:45:45.892Z,97.83
2022-11-17T18:47:47.248Z,97.9
2022-11-17T18:49:48.814Z,97.61
2022-11-17T18:51:50.741Z,96.82
2022-11-17T18:53:51.949Z,96.2
2022-11-17T18:55:53.547Z,95.41
2022-11-17T18:57:55.449Z,95
2022-11-17T18:59:57.386Z,94.6
2022-11-17T19:01:59.140Z,93.86
2022-11-17T19:04:00.453Z,93.37
2022-11-17T19:08:04.063Z,93.04
2022-11-17T19:10:05.175Z,93.36
2022-11-17T19:12:06.609Z,93.63
2022-11-17T19:14:08.101Z,93.87
2022-11-17T19:18:11.477Z,93.29
2022-11-17T19:20:12.886Z,93.09
2022-11-17T19:22:14.183Z,92.78
2022-11-17T19:24:15.346Z,92.78
2022-11-17T19:26:16.887Z,93.1
2022-11-17T19:28:18.756Z,92.91
2022-11-17T19:30:20.083Z,93.09
2022-11-17T19:32:21.146Z,93.33
2022-11-17T19:34:23.048Z,93.28
2022-11-17T19:36:24.115Z,93.33
2022-11-17T19:38:25.313Z,93.16
2022-11-17T19:40:27.045Z,93.05
2022-11-17T19:42:28.386Z,92.53
2022-11-17T19:44:29.829Z,92.58
2022-11-17T19:46:30.999Z,92.68
2022-11-17T19:48:32.572Z,92.68
2022-11-17T19:50:34.510Z,92.66
2022-11-17T19:52:36.400Z,92.8
2022-11-17T19:54:38.239Z,92.92
2022-11-17T19:56:40.036Z,92.98
2022-11-17T19:58:41.708Z,91.9
2022-11-17T20:00:43.075Z,92.68
2022-11-17T20:02:44.550Z,93.21
2022-11-17T20:04:45.895Z,92.98
2022-11-17T20:06:47.157Z,93.02
2022-11-17T20:08:48.365Z,92.86
2022-11-17T20:10:49.599Z,93
2022-11-17T20:12:50.926Z,92.83
2022-11-17T20:14:52.377Z,93.28
2022-11-17T20:16:53.467Z,94.63
2022-11-17T20:18:54.693Z,95.49
2022-11-17T20:19:38.562Z,95.63
2022-11-17T20:21:39.877Z,95.43
2022-11-17T20:23:41.765Z,95.49
2022-11-17T20:27:45.197Z,95.62
2022-11-17T20:29:46.559Z,95.66
2022-11-17T20:31:47.681Z,95.66
2022-11-17T20:33:49.588Z,95.74
2022-11-17T20:37:52.762Z,95.85
2022-11-17T20:39:54.501Z,96.08
2022-11-17T20:41:55.689Z,96.04
2022-11-17T20:43:57.483Z,96.39
2022-11-17T20:45:58.803Z,96.84
2022-11-17T20:48:00.615Z,97.01
2022-11-17T20:50:02.323Z,97.19
2022-11-17T20:52:03.478Z,97.11
2022-11-17T20:54:04.505Z,96.88
2022-11-17T20:56:06.082Z,96.92
2022-11-17T20:58:07.561Z,97.14
2022-11-17T21:00:09.291Z,97.24
2022-11-17T21:02:10.331Z,97.43
2022-11-17T21:04:11.500Z,97.46
2022-11-17T21:06:13.386Z,97.46
2022-11-17T21:08:14.637Z,97.46
2022-11-17T21:10:16.453Z,97.46
2022-11-17T21:12:17.677Z,97.34
2022-11-17T21:14:19.044Z,96.94
2022-11-17T21:16:20.410Z,96.27
2022-11-17T21:18:21.851Z,96.1
2022-11-17T21:20:23.790Z,96.11
2022-11-17T21:22:25.516Z,96.19
2022-11-17T21:26:28.494Z,96.2
2022-11-17T21:28:30.004Z,96.35
2022-11-17T21:30:31.053Z,96.29
2022-11-17T21:32:32.412Z,95.91
2022-11-17T21:36:36.064Z,95.8
2022-11-17T21:38:37.315Z,95.87
2022-11-17T21:40:38.998Z,96.21
2022-11-17T21:42:40.080Z,96.31
2022-11-17T21:44:41.640Z,96.09
2022-11-17T21:46:43.280Z,95.76
2022-11-17T21:48:44.729Z,95.84
2022-11-17T21:50:46.502Z,96.1
2022-11-17T21:52:47.707Z,96.19
2022-11-17T21:54:49.328Z,96.4
2022-11-17T21:58:51.579Z,96.89
2022-11-17T22:00:52.957Z,97.19
2022-11-17T22:02:53.928Z,96.92
2022-11-17T22:04:54.917Z,96.72
2022-11-17T22:06:56.556Z,96.58
2022-11-17T22:08:57.975Z,96.54
2022-11-17T22:10:59.469Z,96.56
2022-11-17T22:13:01.318Z,96.61
2022-11-17T22:15:05.071Z,96.26
2022-11-17T22:17:04.077Z,96.4
2022-11-17T22:19:05.216Z,96.25
2022-11-17T22:21:07.111Z,96.19
2022-11-17T22:23:08.676Z,96.31
2022-11-17T22:25:30.235Z,96.34
2022-11-17T22:27:11.904Z,96.47
2022-11-17T22:29:13.983Z,96.45
2022-11-17T22:31:15.642Z,96.47
2022-11-17T22:35:17.795Z,96.45
2022-11-17T22:37:19.195Z,96.48
2022-11-17T22:39:20.426Z,96.67
2022-11-17T22:41:21.365Z,96.74
2022-11-17T22:43:23.159Z,96.79
2022-11-17T22:45:24.827Z,97
2022-11-17T22:47:25.872Z,97
2022-11-17T22:49:27.752Z,96.92
2022-11-17T22:51:28.776Z,96.91
2022-11-17T22:53:29.734Z,97.11
2022-11-17T22:55:31.277Z,96.84
2022-11-17T22:57:32.485Z,96.33
2022-11-17T22:59:33.682Z,96.21
2022-11-17T23:01:35.393Z,96.22
2022-11-17T23:03:36.533Z,95.82
2022-11-17T23:05:37.506Z,95.61
2022-11-17T23:07:39.358Z,95.48
2022-11-17T23:09:41.074Z,95.6
2022-11-17T23:11:42.759Z,95.31
2022-11-17T23:13:44.479Z,94.71
2022-11-17T23:15:45.954Z,94.97
2022-11-17T23:17:47.785Z,95.05
2022-11-17T23:19:49.275Z,94.86
2022-11-17T23:23:52.071Z,94.46
2022-11-17T23:25:53.144Z,94.37
2022-11-17T23:27:54.731Z,94.71
2022-11-17T23:29:56.100Z,94.69
2022-11-17T23:33:58.768Z,94.8
2022-11-17T23:36:00.014Z,95.06
2022-11-17T23:38:01.100Z,94.65
2022-11-17T23:40:02.578Z,94.6
2022-11-17T23:42:04.203Z,94.65
2022-11-17T23:44:05.460Z,94.88
2022-11-17T23:46:06.895Z,95.12
2022-11-17T23:48:08.680Z,95.29
2022-11-17T23:50:10.152Z,95.43
2022-11-17T23:52:11.393Z,95.49
2022-11-17T23:54:12.495Z,95.58
2022-11-17T23:56:13.570Z,95.64
2022-11-17T23:58:14.799Z,95.81
